createdAt,value
2018-06-15T04:00:51.303Z,3156.00
2018-06-15T04:01:51.185Z,3156.00
2018-06-15T04:03:43.861Z,3156.00
2018-06-15T04:04:43.753Z,3156.00
2018-06-15T04:06:36.452Z,3156.00
2018-06-15T04:07:36.362Z,3156.00
2018-06-15T04:09:29.011Z,3156.00
2018-06-15T04:10:28.903Z,3156.00
2018-06-15T04:12:21.616Z,3156.00
2018-06-15T04:13:21.495Z,3156.00
2018-06-15T04:15:14.233Z,3156.00
2018-06-15T04:16:14.062Z,3156.00
2018-06-15T04:18:06.748Z,3156.00
2018-06-15T04:19:06.637Z,3156.00
2018-06-15T04:20:59.344Z,3156.00
2018-06-15T04:21:59.219Z,3156.00
2018-06-15T04:23:52.137Z,3156.00
2018-06-15T04:24:51.916Z,3156.00
2018-06-15T04:26:44.494Z,3156.00
2018-06-15T04:27:44.379Z,3156.00
2018-06-15T04:29:37.054Z,3156.00
2018-06-15T04:30:36.952Z,3156.00
2018-06-15T04:32:29.655Z,3156.00
2018-06-15T04:33:29.542Z,3156.00
2018-06-15T04:35:22.245Z,3156.00
2018-06-15T04:36:22.145Z,3156.00
2018-06-15T04:38:14.811Z,3156.00
2018-06-15T04:39:14.711Z,3156.00
2018-06-15T04:41:07.408Z,3156.00
2018-06-15T04:42:07.290Z,3156.00
2018-06-15T04:43:59.967Z,3156.00
2018-06-15T04:44:59.871Z,3156.00
2018-06-15T04:46:52.565Z,3156.00
2018-06-15T04:47:52.447Z,3156.00
2018-06-15T04:49:45.144Z,3156.00
2018-06-15T04:50:45.027Z,3156.00
2018-06-15T04:52:37.708Z,3156.00
2018-06-15T04:53:37.613Z,3156.00
2018-06-15T04:55:30.310Z,3156.00
2018-06-15T04:56:30.187Z,3156.00
2018-06-15T04:58:22.869Z,3156.00
2018-06-15T04:59:22.771Z,3156.00
2018-06-15T05:01:15.629Z,3156.00
2018-06-15T05:02:15.348Z,3156.00
2018-06-15T05:04:08.066Z,3156.00
2018-06-15T05:05:07.925Z,3156.00
2018-06-15T05:07:00.625Z,3156.00
2018-06-15T05:08:00.523Z,3156.00
2018-06-15T05:09:53.206Z,3156.00
2018-06-15T05:10:53.090Z,3156.00
2018-06-15T05:12:45.766Z,3156.00
2018-06-15T05:13:45.667Z,3156.00
2018-06-15T05:15:38.370Z,3156.00
2018-06-15T05:16:38.242Z,3156.00
2018-06-15T05:18:30.933Z,3156.00
2018-06-15T05:19:30.832Z,3156.00
2018-06-15T05:21:23.542Z,3156.00
2018-06-15T05:22:23.414Z,3156.00
2018-06-15T05:24:16.104Z,3156.00
2018-06-15T05:25:15.999Z,3156.00
2018-06-15T05:27:08.698Z,3156.00
2018-06-15T05:28:08.576Z,3156.00
2018-06-15T05:30:01.289Z,3156.00
2018-06-15T05:31:01.155Z,3156.00
2018-06-15T05:32:53.838Z,3156.00
2018-06-15T05:33:53.736Z,3156.00
2018-06-15T05:35:46.446Z,3156.00
2018-06-15T05:36:46.318Z,3156.00
2018-06-15T05:38:38.998Z,3156.00
2018-06-15T05:39:38.897Z,3156.00
2018-06-15T05:41:31.606Z,3156.00
2018-06-15T05:42:31.509Z,3156.00
2018-06-15T05:44:24.669Z,3156.00
2018-06-15T05:45:24.569Z,3156.00
2018-06-15T05:47:17.269Z,3156.00
2018-06-15T05:48:17.149Z,3156.00
2018-06-15T05:50:09.838Z,3156.00
2018-06-15T05:51:09.737Z,3156.00
2018-06-15T05:53:02.931Z,3156.00
2018-06-15T05:54:02.811Z,3156.00
2018-06-15T05:55:55.643Z,3156.00
2018-06-15T05:56:55.402Z,3156.00
2018-06-15T05:58:48.107Z,3156.00
2018-06-15T05:59:47.982Z,3156.00
2018-06-15T06:01:40.718Z,3156.00
2018-06-15T06:02:40.612Z,3156.00
2018-06-15T06:04:33.315Z,3156.00
2018-06-15T06:05:33.199Z,3156.00
2018-06-15T06:07:25.885Z,3156.00
2018-06-15T06:08:25.785Z,3156.00
2018-06-15T06:10:18.487Z,3156.00
2018-06-15T06:11:18.365Z,3156.00
2018-06-15T06:13:11.051Z,3156.00
2018-06-15T06:14:10.953Z,3156.00
2018-06-15T06:16:03.658Z,3156.00
2018-06-15T06:17:03.541Z,3156.00
2018-06-15T06:18:56.224Z,3156.00
2018-06-15T06:19:56.128Z,3156.00
2018-06-15T06:21:48.835Z,3156.00
2018-06-15T06:22:48.711Z,3156.00
2018-06-15T06:24:41.424Z,3156.00
2018-06-15T06:25:41.295Z,3156.00
2018-06-15T06:27:33.984Z,3156.00
2018-06-15T06:28:33.880Z,3156.00
2018-06-15T06:30:26.603Z,3156.00
2018-06-15T06:31:26.474Z,3156.00
2018-06-15T06:33:19.160Z,48480.00
2018-06-15T06:34:19.057Z,48160.00
2018-06-15T06:36:11.780Z,53056.00
2018-06-15T06:37:11.654Z,33760.00
2018-06-15T06:39:04.348Z,22016.00
2018-06-15T06:40:04.251Z,20736.00
2018-06-15T06:41:56.966Z,18432.00
2018-06-15T06:42:56.849Z,17728.00
2018-06-15T06:44:49.583Z,17376.00
2018-06-15T06:45:49.456Z,17760.00
2018-06-15T06:47:42.171Z,18592.00
2018-06-15T06:48:42.057Z,19584.00
2018-06-15T06:50:34.757Z,21312.00
2018-06-15T06:51:34.663Z,23520.00
2018-06-15T06:53:27.373Z,27424.00
2018-06-15T06:54:27.261Z,28160.00
2018-06-15T06:56:19.955Z,19328.00
2018-06-15T06:57:19.859Z,19872.00
2018-06-15T06:59:12.575Z,15296.00
2018-06-15T07:00:12.476Z,13616.00
2018-06-15T07:02:05.322Z,17440.00
2018-06-15T07:03:05.063Z,20512.00
2018-06-15T07:04:57.754Z,16288.00
2018-06-15T07:05:57.660Z,17152.00
2018-06-15T07:07:50.375Z,18432.00
2018-06-15T07:08:50.255Z,18688.00
2018-06-15T07:10:42.941Z,18336.00
2018-06-15T07:11:42.840Z,25952.00
2018-06-15T07:13:35.571Z,35136.00
2018-06-15T07:14:35.444Z,22432.00
2018-06-15T07:16:28.134Z,15680.00
2018-06-15T07:17:28.043Z,12568.00
2018-06-15T07:19:20.751Z,11012.00
2018-06-15T07:20:20.636Z,8052.00
2018-06-15T07:22:13.338Z,6604.00
2018-06-15T07:23:13.239Z,5796.00
2018-06-15T07:25:05.974Z,4584.00
2018-06-15T07:26:05.833Z,4080.00
2018-06-15T07:27:58.534Z,3764.00
2018-06-15T07:28:58.427Z,3764.00
2018-06-15T07:30:51.136Z,4300.00
2018-06-15T07:31:51.028Z,4404.00
2018-06-15T07:33:43.708Z,4452.00
2018-06-15T07:34:43.606Z,4452.00
2018-06-15T07:36:36.311Z,4912.00
2018-06-15T07:37:36.201Z,5316.00
2018-06-15T07:39:28.883Z,6284.00
2018-06-15T07:40:28.789Z,6712.00
2018-06-15T07:42:21.492Z,6992.00
2018-06-15T07:43:21.376Z,6992.00
2018-06-15T07:45:14.064Z,6680.00
2018-06-15T07:46:14.023Z,6460.00
2018-06-15T07:48:06.678Z,6668.00
2018-06-15T07:49:06.559Z,6668.00
2018-06-15T07:50:59.249Z,9788.00
2018-06-15T07:51:59.145Z,9916.00
2018-06-15T07:53:51.860Z,10556.00
2018-06-15T07:54:51.736Z,10848.00
2018-06-15T07:56:44.451Z,11036.00
2018-06-15T07:57:44.337Z,11036.00
2018-06-15T07:59:37.046Z,10284.00
2018-06-15T08:00:36.923Z,10272.00
2018-06-15T08:02:29.635Z,9632.00
2018-06-15T08:03:29.517Z,9568.00
2018-06-15T08:05:22.208Z,10644.00
2018-06-15T08:06:22.122Z,10644.00
2018-06-15T08:08:14.828Z,14444.00
2018-06-15T08:09:14.697Z,17920.00
2018-06-15T08:11:07.385Z,24608.00
2018-06-15T08:12:07.285Z,24608.00
2018-06-15T08:14:00.499Z,62944.00
2018-06-15T08:15:00.404Z,39744.00
2018-06-15T08:16:53.124Z,77472.00
2018-06-15T08:17:52.994Z,77312.00
2018-06-15T08:19:45.689Z,73152.00
2018-06-15T08:20:45.601Z,65184.00
2018-06-15T08:22:38.326Z,56448.00
2018-06-15T08:23:38.210Z,34048.00
2018-06-15T08:25:30.917Z,71904.00
2018-06-15T08:26:30.823Z,53760.00
2018-06-15T08:28:23.547Z,73088.00
2018-06-15T08:29:23.432Z,52576.00
2018-06-15T08:31:16.138Z,23264.00
2018-06-15T08:32:16.049Z,24576.00
2018-06-15T08:34:08.773Z,82624.00
2018-06-15T08:35:08.655Z,88576.00
2018-06-15T08:37:01.364Z,92128.00
2018-06-15T08:38:01.276Z,91008.00
2018-06-15T08:39:54.013Z,64736.00
2018-06-15T08:40:53.904Z,36672.00
2018-06-15T08:42:46.612Z,29504.00
2018-06-15T08:43:46.519Z,64416.00
2018-06-15T08:45:39.249Z,26784.00
2018-06-15T08:46:39.141Z,23712.00
2018-06-15T08:48:31.846Z,25248.00
2018-06-15T08:49:31.757Z,66048.00
2018-06-15T08:51:24.490Z,27296.00
2018-06-15T08:52:24.381Z,27584.00
2018-06-15T08:54:17.105Z,26720.00
2018-06-15T08:55:16.991Z,24480.00
2018-06-15T08:57:09.696Z,24096.00
2018-06-15T08:58:09.639Z,26464.00
2018-06-15T09:00:02.335Z,27648.00
2018-06-15T09:01:02.215Z,25600.00
2018-06-15T09:02:54.925Z,26688.00
2018-06-15T09:03:54.825Z,26208.00
2018-06-15T09:05:47.547Z,25664.00
2018-06-15T09:06:47.441Z,25920.00
2018-06-15T09:08:40.164Z,23520.00
2018-06-15T09:09:40.043Z,23424.00
2018-06-15T09:11:32.766Z,23072.00
2018-06-15T09:12:32.655Z,22528.00
2018-06-15T09:14:25.368Z,22336.00
2018-06-15T09:15:25.260Z,22976.00
2018-06-15T09:17:17.989Z,21248.00
2018-06-15T09:18:17.867Z,21152.00
2018-06-15T09:20:10.572Z,18560.00
2018-06-15T09:21:10.484Z,17248.00
2018-06-15T09:23:03.205Z,18528.00
2018-06-15T09:24:03.078Z,18048.00
2018-06-15T09:25:56.426Z,16320.00
2018-06-15T09:26:55.697Z,15424.00
2018-06-15T09:28:48.417Z,13096.00
2018-06-15T09:29:48.297Z,11772.00
2018-06-15T09:31:41.003Z,10912.00
2018-06-15T09:32:40.940Z,11432.00
2018-06-15T09:34:33.617Z,12040.00
2018-06-15T09:35:33.508Z,12620.00
2018-06-15T09:37:26.201Z,13776.00
2018-06-15T09:38:26.114Z,15136.00
2018-06-15T09:40:18.825Z,16192.00
2018-06-15T09:41:18.703Z,16768.00
2018-06-15T09:43:11.396Z,15904.00
2018-06-15T09:44:11.304Z,15328.00
2018-06-15T09:46:04.020Z,15520.00
2018-06-15T09:47:03.902Z,15808.00
2018-06-15T09:48:56.606Z,17760.00
2018-06-15T09:49:56.502Z,19840.00
2018-06-15T09:51:49.227Z,21088.00
2018-06-15T09:52:49.145Z,23456.00
2018-06-15T09:54:41.807Z,22176.00
2018-06-15T09:55:41.713Z,22304.00
2018-06-15T09:57:34.428Z,22496.00
2018-06-15T09:58:34.311Z,21312.00
2018-06-15T10:00:27.007Z,18528.00
2018-06-15T10:01:26.911Z,16576.00
2018-06-15T10:03:19.624Z,15776.00
2018-06-15T10:04:19.509Z,15552.00
2018-06-15T10:06:12.248Z,13440.00
2018-06-15T10:07:12.106Z,14004.00
2018-06-15T10:09:04.818Z,14064.00
2018-06-15T10:10:04.706Z,14944.00
2018-06-15T10:11:57.430Z,13416.00
2018-06-15T10:12:57.307Z,12824.00
2018-06-15T10:14:50.000Z,12068.00
2018-06-15T10:15:49.903Z,12252.00
2018-06-15T10:17:42.612Z,12496.00
2018-06-15T10:18:42.500Z,13764.00
2018-06-15T10:20:35.196Z,16032.00
2018-06-15T10:21:35.103Z,17024.00
2018-06-15T10:23:27.833Z,18016.00
2018-06-15T10:24:27.705Z,17600.00
2018-06-15T10:26:20.391Z,14780.00
2018-06-15T10:27:20.356Z,14132.00
2018-06-15T10:29:13.019Z,15520.00
2018-06-15T10:30:12.907Z,16640.00
2018-06-15T10:32:05.621Z,17888.00
2018-06-15T10:33:05.529Z,17152.00
2018-06-15T10:34:58.202Z,16224.00
2018-06-15T10:35:58.105Z,15500.00
2018-06-15T10:37:50.811Z,14248.00
2018-06-15T10:38:50.701Z,13936.00
2018-06-15T10:40:43.398Z,13496.00
2018-06-15T10:41:43.308Z,13296.00
2018-06-15T10:43:36.009Z,12868.00
2018-06-15T10:44:35.895Z,12732.00
2018-06-15T10:46:29.117Z,12556.00
2018-06-15T10:47:28.989Z,12252.00
2018-06-15T10:49:21.682Z,11264.00
2018-06-15T10:50:21.590Z,11032.00
2018-06-15T10:52:14.294Z,11096.00
2018-06-15T10:53:14.185Z,11096.00
2018-06-15T10:55:06.881Z,11600.00
2018-06-15T10:56:06.794Z,11420.00
2018-06-15T10:57:59.507Z,11012.00
2018-06-15T10:58:59.384Z,11068.00
2018-06-15T11:00:52.081Z,11212.00
2018-06-15T11:01:51.981Z,11220.00
2018-06-15T11:03:44.697Z,10924.00
2018-06-15T11:04:44.575Z,10728.00
2018-06-15T11:06:37.290Z,10952.00
2018-06-15T11:07:37.178Z,10952.00
2018-06-15T11:09:29.874Z,10928.00
2018-06-15T11:10:29.773Z,10824.00
2018-06-15T11:12:22.516Z,10112.00
2018-06-15T11:13:22.377Z,9992.00
2018-06-15T11:15:15.082Z,10984.00
2018-06-15T11:16:14.986Z,12084.00
2018-06-15T11:18:07.682Z,11620.00
2018-06-15T11:19:07.571Z,11120.00
2018-06-15T11:21:00.270Z,11068.00
2018-06-15T11:22:00.205Z,10740.00
2018-06-15T11:23:52.885Z,11700.00
2018-06-15T11:24:52.781Z,12768.00
2018-06-15T11:26:46.077Z,12648.00
2018-06-15T11:27:45.966Z,11208.00
2018-06-15T11:29:38.671Z,9012.00
2018-06-15T11:30:38.563Z,8232.00
2018-06-15T11:32:31.253Z,7980.00
2018-06-15T11:33:31.153Z,8212.00
2018-06-15T11:35:23.868Z,9484.00
2018-06-15T11:36:23.894Z,9944.00
2018-06-15T11:38:16.441Z,10232.00
2018-06-15T11:39:16.345Z,11424.00
2018-06-15T11:41:09.135Z,13072.00
2018-06-15T11:42:08.945Z,14308.00
2018-06-15T11:44:01.680Z,15872.00
2018-06-15T11:45:01.539Z,16480.00
2018-06-15T11:46:54.249Z,15616.00
2018-06-15T11:47:54.146Z,15200.00
2018-06-15T11:49:46.861Z,13732.00
2018-06-15T11:50:46.746Z,12900.00
2018-06-15T11:52:39.449Z,11624.00
2018-06-15T11:53:39.357Z,11452.00
2018-06-15T11:55:32.206Z,12780.00
2018-06-15T11:56:31.941Z,13848.00
2018-06-15T11:58:24.638Z,15520.00
2018-06-15T11:59:24.549Z,15936.00
2018-06-15T12:01:17.253Z,14212.00
2018-06-15T12:02:17.138Z,13540.00
2018-06-15T12:04:09.845Z,13248.00
2018-06-15T12:05:09.740Z,12640.00
2018-06-15T12:07:02.436Z,12508.00
2018-06-15T12:08:02.340Z,12492.00
2018-06-15T12:09:55.060Z,13064.00
2018-06-15T12:10:54.942Z,13076.00
2018-06-15T12:12:47.635Z,12156.00
2018-06-15T12:13:47.536Z,11372.00
2018-06-15T12:15:40.254Z,9408.00
2018-06-15T12:16:40.138Z,9092.00
2018-06-15T12:18:32.838Z,8360.00
2018-06-15T12:19:32.744Z,8264.00
2018-06-15T12:21:25.450Z,8064.00
2018-06-15T12:22:25.345Z,7976.00
2018-06-15T12:24:18.535Z,7920.00
2018-06-15T12:25:18.430Z,7760.00
2018-06-15T12:27:11.163Z,8344.00
2018-06-15T12:28:11.027Z,8728.00
2018-06-15T12:30:03.738Z,9212.00
2018-06-15T12:31:03.618Z,9868.00
2018-06-15T12:32:56.336Z,10904.00
2018-06-15T12:33:56.219Z,11824.00
2018-06-15T12:35:48.910Z,12560.00
2018-06-15T12:36:48.866Z,12664.00
2018-06-15T12:38:41.532Z,14752.00
2018-06-15T12:39:41.413Z,14944.00
2018-06-15T12:41:34.129Z,13740.00
2018-06-15T12:42:34.014Z,12532.00
2018-06-15T12:44:26.750Z,11216.00
2018-06-15T12:45:26.613Z,11552.00
2018-06-15T12:47:19.373Z,11160.00
2018-06-15T12:48:19.231Z,11388.00
2018-06-15T12:50:12.821Z,12032.00
2018-06-15T12:51:12.717Z,12136.00
2018-06-15T12:53:05.396Z,10548.00
2018-06-15T12:54:05.304Z,10420.00
2018-06-15T12:55:58.027Z,11560.00
2018-06-15T12:56:57.969Z,11184.00
2018-06-15T12:58:50.613Z,10784.00
2018-06-15T12:59:50.516Z,10364.00
2018-06-15T13:01:43.322Z,11572.00
2018-06-15T13:02:43.192Z,11760.00
2018-06-15T13:04:35.886Z,11088.00
2018-06-15T13:05:35.794Z,10820.00
2018-06-15T13:07:28.556Z,10944.00
2018-06-15T13:08:28.390Z,11484.00
2018-06-15T13:10:21.084Z,12432.00
2018-06-15T13:11:20.991Z,13452.00
2018-06-15T13:13:13.709Z,15232.00
2018-06-15T13:14:13.597Z,16032.00
2018-06-15T13:16:06.305Z,16096.00
2018-06-15T13:17:06.197Z,15552.00
2018-06-15T13:19:00.041Z,15520.00
2018-06-15T13:19:59.800Z,15424.00
2018-06-15T13:21:52.505Z,15488.00
2018-06-15T13:22:52.393Z,15424.00
2018-06-15T13:24:45.100Z,14112.00
2018-06-15T13:25:44.991Z,13668.00
2018-06-15T13:27:37.725Z,12800.00
2018-06-15T13:28:37.597Z,12608.00
2018-06-15T13:30:31.319Z,12504.00
2018-06-15T13:31:31.208Z,12332.00
2018-06-15T13:33:24.411Z,12824.00
2018-06-15T13:34:24.300Z,13584.00
2018-06-15T13:36:17.037Z,15840.00
2018-06-15T13:37:16.910Z,15936.00
2018-06-15T13:39:09.602Z,14848.00
2018-06-15T13:40:09.511Z,13404.00
2018-06-15T13:42:02.231Z,10256.00
2018-06-15T13:43:02.122Z,9692.00
2018-06-15T13:44:54.888Z,9892.00
2018-06-15T13:45:54.720Z,10444.00
2018-06-15T13:47:47.436Z,10796.00
2018-06-15T13:48:47.323Z,10156.00
2018-06-15T13:50:40.037Z,10160.00
2018-06-15T13:51:39.926Z,9684.00
2018-06-15T13:53:32.668Z,8364.00
2018-06-15T13:54:32.540Z,7648.00
2018-06-15T13:56:25.248Z,8060.00
2018-06-15T13:57:25.142Z,9580.00
2018-06-15T13:59:17.863Z,10988.00
2018-06-15T14:00:17.806Z,12020.00
2018-06-15T14:02:10.479Z,11468.00
2018-06-15T14:03:10.350Z,10472.00
2018-06-15T14:05:03.049Z,10020.00
2018-06-15T14:06:02.948Z,11100.00
2018-06-15T14:07:55.675Z,12856.00
2018-06-15T14:08:55.552Z,12352.00
2018-06-15T14:10:48.265Z,10864.00
2018-06-15T14:11:48.167Z,10164.00
2018-06-15T14:13:40.872Z,8892.00
2018-06-15T14:14:40.760Z,8408.00
2018-06-15T14:16:33.480Z,7528.00
2018-06-15T14:17:33.360Z,7208.00
2018-06-15T14:19:26.074Z,7272.00
2018-06-15T14:20:25.957Z,7624.00
2018-06-15T14:22:18.679Z,7840.00
2018-06-15T14:23:18.577Z,8040.00
2018-06-15T14:25:11.317Z,9512.00
2018-06-15T14:26:11.186Z,10012.00
2018-06-15T14:28:03.870Z,9472.00
2018-06-15T14:29:03.773Z,8996.00
2018-06-15T14:30:56.637Z,8580.00
2018-06-15T14:31:56.379Z,8480.00
2018-06-15T14:33:49.073Z,7984.00
2018-06-15T14:34:48.972Z,7540.00
2018-06-15T14:36:41.705Z,7196.00
2018-06-15T14:37:41.583Z,7336.00
2018-06-15T14:39:34.280Z,7812.00
2018-06-15T14:40:34.213Z,7916.00
2018-06-15T14:42:27.905Z,8280.00
2018-06-15T14:43:27.783Z,8452.00
2018-06-15T14:45:20.475Z,8288.00
2018-06-15T14:46:20.383Z,8136.00
2018-06-15T14:48:13.106Z,7948.00
2018-06-15T14:49:12.990Z,8004.00
2018-06-15T14:51:05.690Z,8308.00
2018-06-15T14:52:05.589Z,8148.00
2018-06-15T14:53:58.303Z,8232.00
2018-06-15T14:54:58.211Z,8116.00
2018-06-15T14:56:50.997Z,7776.00
2018-06-15T14:57:50.785Z,7608.00
2018-06-15T14:59:43.513Z,7548.00
2018-06-15T15:00:43.409Z,7724.00
2018-06-15T15:02:36.597Z,8236.00
2018-06-15T15:03:36.501Z,8640.00
2018-06-15T15:05:29.232Z,9236.00
2018-06-15T15:06:29.103Z,9432.00
2018-06-15T15:08:21.811Z,8968.00
2018-06-15T15:09:21.716Z,8900.00
2018-06-15T15:11:14.426Z,9196.00
2018-06-15T15:12:14.307Z,9184.00
2018-06-15T15:14:07.008Z,9140.00
2018-06-15T15:15:06.910Z,9016.00
2018-06-15T15:16:59.627Z,9144.00
2018-06-15T15:17:59.505Z,9360.00
2018-06-15T15:19:52.206Z,9788.00
2018-06-15T15:20:52.118Z,9640.00
2018-06-15T15:22:44.841Z,8996.00
2018-06-15T15:23:44.714Z,8844.00
2018-06-15T15:25:37.897Z,9568.00
2018-06-15T15:26:37.805Z,9936.00
2018-06-15T15:28:30.514Z,9548.00
2018-06-15T15:29:30.407Z,9056.00
2018-06-15T15:31:23.098Z,8360.00
2018-06-15T15:32:23.006Z,8036.00
2018-06-15T15:34:15.719Z,7780.00
2018-06-15T15:35:15.603Z,8124.00
2018-06-15T15:37:08.462Z,8416.00
2018-06-15T15:38:08.240Z,8392.00
2018-06-15T15:40:00.926Z,8360.00
2018-06-15T15:41:00.806Z,8400.00
2018-06-15T15:42:53.509Z,8040.00
2018-06-15T15:43:53.414Z,8016.00
2018-06-15T15:45:46.127Z,7756.00
2018-06-15T15:46:46.011Z,7772.00
2018-06-15T15:48:38.729Z,7780.00
2018-06-15T15:49:38.609Z,7892.00
2018-06-15T15:51:31.314Z,8684.00
2018-06-15T15:52:31.218Z,9008.00
2018-06-15T15:54:23.935Z,8768.00
2018-06-15T15:55:23.826Z,8448.00
2018-06-15T15:57:16.517Z,7832.00
2018-06-15T15:58:16.421Z,7880.00
2018-06-15T16:00:09.134Z,8124.00
2018-06-15T16:01:09.018Z,7952.00
2018-06-15T16:03:01.722Z,7616.00
2018-06-15T16:04:01.617Z,7336.00
2018-06-15T16:05:54.337Z,6688.00
2018-06-15T16:06:54.221Z,6336.00
2018-06-15T16:08:46.907Z,6124.00
2018-06-15T16:09:46.818Z,5860.00
2018-06-15T16:11:40.037Z,5448.00
2018-06-15T16:12:39.918Z,5176.00
2018-06-15T16:14:32.610Z,5168.00
2018-06-15T16:15:32.522Z,5224.00
2018-06-15T16:17:25.296Z,5228.00
2018-06-15T16:18:25.182Z,5144.00
2018-06-15T16:20:17.926Z,5660.00
2018-06-15T16:21:17.771Z,5868.00
2018-06-15T16:23:10.491Z,5820.00
2018-06-15T16:24:10.371Z,6184.00
2018-06-15T16:26:03.231Z,6900.00
2018-06-15T16:27:03.023Z,7160.00
2018-06-15T16:28:55.659Z,7744.00
2018-06-15T16:29:55.578Z,7544.00
2018-06-15T16:31:48.278Z,6548.00
2018-06-15T16:32:48.165Z,6216.00
2018-06-15T16:34:40.858Z,5820.00
2018-06-15T16:35:40.758Z,5728.00
2018-06-15T16:37:33.470Z,5552.00
2018-06-15T16:38:33.354Z,5576.00
2018-06-15T16:40:26.079Z,5556.00
2018-06-15T16:41:25.986Z,5524.00
2018-06-15T16:43:18.735Z,5276.00
2018-06-15T16:44:18.588Z,5144.00
2018-06-15T16:46:11.312Z,5036.00
2018-06-15T16:47:11.187Z,5052.00
2018-06-15T16:49:03.888Z,5308.00
2018-06-15T16:50:03.791Z,5480.00
2018-06-15T16:51:56.511Z,5564.00
2018-06-15T16:52:56.386Z,5376.00
2018-06-15T16:54:49.115Z,4924.00
2018-06-15T16:55:49.011Z,4840.00
2018-06-15T16:57:41.720Z,4900.00
2018-06-15T16:58:41.609Z,4996.00
2018-06-15T17:00:34.297Z,5408.00
2018-06-15T17:01:34.201Z,5520.00
2018-06-15T17:03:26.919Z,5600.00
2018-06-15T17:04:26.798Z,5852.00
2018-06-15T17:06:19.494Z,6284.00
2018-06-15T17:07:19.391Z,6508.00
2018-06-15T17:09:12.113Z,6456.00
2018-06-15T17:10:11.995Z,6524.00
2018-06-15T17:12:04.680Z,6316.00
2018-06-15T17:13:04.588Z,6240.00
2018-06-15T17:14:57.302Z,6312.00
2018-06-15T17:15:57.186Z,6324.00
2018-06-15T17:17:49.874Z,6476.00
2018-06-15T17:18:49.784Z,6216.00
2018-06-15T17:20:42.503Z,5956.00
2018-06-15T17:21:42.369Z,5992.00
2018-06-15T17:23:35.078Z,5376.00
2018-06-15T17:24:34.980Z,4992.00
2018-06-15T17:26:27.690Z,4432.00
2018-06-15T17:27:27.569Z,4316.00
2018-06-15T17:29:20.761Z,4292.00
2018-06-15T17:30:20.656Z,4392.00
2018-06-15T17:32:13.371Z,4788.00
2018-06-15T17:33:13.267Z,4764.00
2018-06-15T17:35:06.443Z,4456.00
2018-06-15T17:36:06.347Z,4228.00
2018-06-15T17:37:59.059Z,3896.00
2018-06-15T17:38:58.942Z,3896.00
2018-06-15T17:40:51.658Z,3636.00
2018-06-15T17:41:51.547Z,3648.00
2018-06-15T17:43:44.234Z,3676.00
2018-06-15T17:44:44.140Z,3676.00
2018-06-15T17:46:36.853Z,4384.00
2018-06-15T17:47:36.731Z,4520.00
2018-06-15T17:49:29.428Z,4432.00
2018-06-15T17:50:29.327Z,4440.00
2018-06-15T17:52:22.043Z,4424.00
2018-06-15T17:53:21.927Z,4424.00
2018-06-15T17:55:14.643Z,4536.00
2018-06-15T17:56:14.514Z,4476.00
2018-06-15T17:58:07.716Z,4352.00
2018-06-15T17:59:07.619Z,4352.00
2018-06-15T18:01:00.332Z,3892.00
2018-06-15T18:02:00.209Z,3820.00
2018-06-15T18:03:52.953Z,3548.00
2018-06-15T18:04:52.833Z,3548.00
2018-06-15T18:06:45.536Z,2988.00
2018-06-15T18:07:45.426Z,2924.00
2018-06-15T18:09:38.116Z,3004.00
2018-06-15T18:10:38.011Z,3004.00
2018-06-15T18:12:30.731Z,3048.00
2018-06-15T18:13:30.609Z,3084.00
2018-06-15T18:15:23.325Z,3100.00
2018-06-15T18:16:23.213Z,3100.00
2018-06-15T18:18:15.894Z,3320.00
2018-06-15T18:19:15.795Z,3360.00
2018-06-15T18:21:08.655Z,3312.00
2018-06-15T18:22:08.392Z,3312.00
2018-06-15T18:24:01.100Z,3080.00
2018-06-15T18:25:00.991Z,3076.00
2018-06-15T18:26:53.691Z,2900.00
2018-06-15T18:27:53.576Z,2900.00
2018-06-15T18:29:46.287Z,2656.00
2018-06-15T18:30:46.163Z,2548.00
2018-06-15T18:32:38.876Z,2404.00
2018-06-15T18:33:38.774Z,2404.00
2018-06-15T18:35:31.467Z,2296.00
2018-06-15T18:36:31.353Z,2332.00
2018-06-15T18:38:24.039Z,2368.00
2018-06-15T18:39:23.938Z,2368.00
2018-06-15T18:41:16.951Z,1860.00
2018-06-15T18:42:16.783Z,1732.00
2018-06-15T18:44:09.482Z,1620.00
2018-06-15T18:45:09.373Z,1620.00
2018-06-15T18:47:02.099Z,1484.00
2018-06-15T18:48:01.968Z,1460.00
2018-06-15T18:49:54.660Z,1324.00
2018-06-15T18:50:54.652Z,1324.00
2018-06-15T18:52:47.264Z,876.00
2018-06-15T18:53:47.154Z,832.00
2018-06-15T18:55:39.847Z,792.00
2018-06-15T18:56:39.748Z,792.00
2018-06-15T18:58:32.950Z,792.00
2018-06-15T18:59:32.827Z,792.00
2018-06-15T19:01:26.021Z,792.00
2018-06-15T19:02:25.922Z,792.00
2018-06-15T19:04:18.628Z,792.00
2018-06-15T19:05:18.509Z,792.00
2018-06-15T19:07:11.201Z,792.00
2018-06-15T19:08:11.097Z,792.00
2018-06-15T19:10:03.802Z,792.00
2018-06-15T19:11:03.683Z,792.00
2018-06-15T19:12:56.402Z,792.00
2018-06-15T19:13:56.317Z,792.00
2018-06-15T19:15:48.972Z,792.00
2018-06-15T19:16:48.951Z,792.00
2018-06-15T19:18:41.574Z,792.00
2018-06-15T19:19:41.460Z,792.00
2018-06-15T19:21:34.145Z,792.00
2018-06-15T19:22:34.049Z,792.00
2018-06-15T19:24:26.769Z,792.00
2018-06-15T19:25:26.642Z,792.00
2018-06-15T19:27:19.328Z,792.00
2018-06-15T19:28:19.232Z,792.00
2018-06-15T19:30:11.944Z,792.00
2018-06-15T19:31:11.826Z,792.00
2018-06-15T19:33:04.534Z,792.00
2018-06-15T19:34:04.414Z,792.00
2018-06-15T19:35:57.176Z,792.00
2018-06-15T19:36:57.091Z,792.00
2018-06-15T19:38:49.696Z,792.00
2018-06-15T19:39:49.600Z,792.00
2018-06-15T19:41:42.343Z,792.00
2018-06-15T19:42:42.200Z,792.00
2018-06-15T19:44:34.902Z,792.00
2018-06-15T19:45:34.797Z,792.00
2018-06-15T19:47:27.502Z,792.00
2018-06-15T19:48:27.383Z,792.00
2018-06-15T19:50:20.079Z,792.00
2018-06-15T19:51:20.000Z,792.00
2018-06-15T19:53:12.687Z,792.00
2018-06-15T19:54:12.564Z,792.00
2018-06-15T19:56:05.751Z,792.00
2018-06-15T19:57:05.922Z,792.00
2018-06-15T19:58:58.584Z,792.00
2018-06-15T19:59:58.255Z,792.00
2018-06-15T20:01:50.938Z,792.00
2018-06-15T20:02:50.838Z,792.00
2018-06-15T20:04:43.544Z,792.00
2018-06-15T20:05:43.437Z,792.00
2018-06-15T20:07:36.464Z,792.00
2018-06-15T20:08:36.024Z,792.00
2018-06-15T20:10:28.710Z,792.00
2018-06-15T20:11:28.610Z,792.00
2018-06-15T20:13:21.881Z,792.00
2018-06-15T20:14:21.750Z,792.00
2018-06-15T20:16:14.441Z,792.00
2018-06-15T20:17:14.336Z,792.00
2018-06-15T20:19:07.414Z,792.00
2018-06-15T20:20:06.962Z,792.00
2018-06-15T20:22:00.720Z,792.00
2018-06-15T20:23:00.719Z,792.00
2018-06-15T20:24:53.264Z,792.00
2018-06-15T20:25:53.158Z,792.00
2018-06-15T20:27:45.882Z,792.00
2018-06-15T20:28:45.746Z,792.00
2018-06-15T20:30:38.447Z,792.00
2018-06-15T20:31:38.416Z,792.00
2018-06-15T20:33:31.058Z,792.00
2018-06-15T20:34:30.929Z,792.00
2018-06-15T20:36:23.922Z,792.00
2018-06-15T20:37:23.516Z,792.00
2018-06-15T20:39:16.207Z,792.00
2018-06-15T20:40:16.110Z,792.00
2018-06-15T20:42:08.832Z,792.00
2018-06-15T20:43:08.735Z,792.00
2018-06-15T20:45:01.385Z,792.00
2018-06-15T20:46:01.282Z,792.00
2018-06-15T20:47:53.988Z,792.00
2018-06-15T20:48:54.192Z,792.00
2018-06-15T20:50:46.557Z,792.00
2018-06-15T20:51:46.457Z,792.00
2018-06-15T20:53:39.169Z,792.00
2018-06-15T20:54:39.049Z,792.00
2018-06-15T20:56:31.733Z,792.00
2018-06-15T20:57:31.684Z,792.00
2018-06-15T20:59:24.343Z,792.00
2018-06-15T21:00:24.212Z,792.00
2018-06-15T21:02:16.928Z,792.00
2018-06-15T21:03:16.805Z,792.00
2018-06-15T21:05:09.485Z,792.00
2018-06-15T21:06:09.464Z,792.00
2018-06-15T21:08:02.102Z,792.00
2018-06-15T21:09:01.975Z,792.00
2018-06-15T21:10:54.812Z,792.00
2018-06-15T21:11:54.565Z,792.00
2018-06-15T21:13:47.266Z,792.00
2018-06-15T21:14:47.147Z,792.00
2018-06-15T21:16:39.834Z,792.00